Terminal Aerodrome Forecast
Issued by NWS Omaha/Valley, NE

Home | Current Version | Previous Version | Text Only | Print | Product List | Glossary On
Versions: 1 2 3 4 5 6 7 8 9 10 11 12 13 14 15 16 17 18 19 20 21 22 23 24 25 26 27 28 29 30 31
000
FTUS43 KOAX 261723
TAFLNK
TAF
KLNK 261723Z 2618/2718 25010G18KT P6SM SKC
     FM261900 34017G26KT P6SM BKN120
     FM270200 34011KT P6SM SKC
     FM271200 28006KT P6SM SKC=

USA.gov is the U.S. government's official web portal to all federal, state and local government web resources and services.